Historique des mesures à Cassis (13260), France
Quotidien Résumé Fevrier 9, 2021 Unités:  Métrique/US    US   Métrique
Quotidien Hebdomadaire Mensuel Annuel
  Maximum: Minimum: Moyenne:
Température: 87.3 °F /  30.7 °C 66.2 °F /  19 °C 77.2 °F /  25.1 °C
Point de rosée: 66.7 °F /  19.3 °C 57.2 °F /  14 °C 61.9 °F /  16.6 °C
Humidité: 74% 47% 60%
Vitesse du vent: 10.5mph /  16.9km/h - 2.1mph /  3.4km/h
Rafales: 14.5mph /  23.4km/h - -
Vent- - SW
Pression: 30 in /  1015.5 hPa 29.9 in /  1013.4 hPa -
Précipitations: 0 in /  0.0 mm    
Historical Graphs
 
 
Mesures pour : Fevrier 9, 2021
Heure Temperature Point de rosée Pression Vent Vitesse du vent Rafales Humidité Pluie (par heure)
00:10 69.4 °F /  20.8 °C 58.8 °F /  14.9 °C 30in /  1014.5hPa Calm   2.5mph /  4km/h 69% 0in /  0.0mm
01:10 69.1 °F /  20.6 °C 57.6 °F /  14.2 °C 29.9in /  1014.1hPa Calm   2mph /  3.2km/h 67% 0in /  0.0mm
02:10 68.5 °F /  20.3 °C 57.2 °F /  14 °C 29.9in /  1013.9hPa NW 3.1mph /  5km/h 9.6mph /  15.5km/h 67% 0in /  0.0mm
03:10 67.8 °F /  19.9 °C 58.1 °F /  14.5 °C 29.9in /  1013.4hPa NW 5.8mph /  9.4km/h 7.4mph /  11.9km/h 71% 0in /  0.0mm
04:11 67.3 °F /  19.6 °C 57.9 °F /  14.4 °C 29.9in /  1013.5hPa NNW 3.1mph /  5km/h 7.6mph /  12.2km/h 72% 0in /  0.0mm
05:10 66.2 °F /  19 °C 57.6 °F /  14.2 °C 29.9in /  1013.4hPa Calm   2.2mph /  3.6km/h 74% 0in /  0.0mm
06:10 66.2 °F /  19 °C 57.6 °F /  14.2 °C 29.9in /  1013.9hPa NW 7.4mph /  11.9km/h 8.7mph /  14km/h 74% 0in /  0.0mm
07:10 67.3 °F /  19.6 °C 57.9 °F /  14.4 °C 29.9in /  1014.0hPa NW 4.2mph /  6.8km/h 5.3mph /  8.6km/h 72% 0in /  0.0mm
08:10 87.3 °F /  30.7 °C 64.6 °F /  18.1 °C 30in /  1014.4hPa Calm   1.8mph /  2.9km/h 47% 0in /  0.0mm
09:10 76.8 °F /  24.9 °C 61.9 °F /  16.6 °C 30in /  1014.7hPa Calm   4.5mph /  7.2km/h 60% 0in /  0.0mm
10:10 76.8 °F /  24.9 °C 62.4 °F /  16.9 °C 30in /  1015.0hPa Calm   4.2mph /  6.8km/h 61% 0in /  0.0mm
11:10 82.6 °F /  28.1 °C 64.2 °F /  17.9 °C 30in /  1015.2hPa SE 2.9mph /  4.7km/h 7.8mph /  12.6km/h 54% 0in /  0.0mm
12:10 84.4 °F /  29.1 °C 64.4 °F /  18 °C 30in /  1015.4hPa ESE 0.9mph /  1.4km/h 3.8mph /  6.1km/h 51% 0in /  0.0mm
13:10 85.6 °F /  29.8 °C 64.4 °F /  18 °C 30in /  1015.5hPa Calm   5.8mph /  9.4km/h 49% 0in /  0.0mm
14:10 85.8 °F /  29.9 °C 65.1 °F /  18.4 °C 30in /  1015.4hPa SE 1.8mph /  2.9km/h 6.7mph /  10.8km/h 50% 0in /  0.0mm
15:10 86.2 °F /  30.1 °C 64.8 °F /  18.2 °C 30in /  1014.9hPa ESE 1.1mph /  1.8km/h 4.9mph /  7.9km/h 49% 0in /  0.0mm
16:10 85.3 °F /  29.6 °C 66.7 °F /  19.3 °C 30in /  1014.6hPa SE 3.8mph /  6.1km/h 8.5mph /  13.7km/h 54% 0in /  0.0mm
17:10 84 °F /  28.9 °C 66.6 °F /  19.2 °C 29.9in /  1014.1hPa South 2.2mph /  3.6km/h 5.8mph /  9.4km/h 56% 0in /  0.0mm
18:11 83.7 °F /  28.7 °C 66.7 °F /  19.3 °C 29.9in /  1013.6hPa ESE 3.6mph /  5.8km/h 5.2mph /  8.3km/h 57% 0in /  0.0mm
19:10 82.4 °F /  28 °C 64.9 °F /  18.3 °C 29.9in /  1014.0hPa Calm   2.5mph /  4km/h 56% 0in /  0.0mm
20:10 82 °F /  27.8 °C 63.1 °F /  17.3 °C 29.9in /  1013.9hPa Calm     53% 0in /  0.0mm
21:10 78.4 °F /  25.8 °C 62.4 °F /  16.9 °C 29.9in /  1013.7hPa Calm     58% 0in /  0.0mm
22:10 74.8 °F /  23.8 °C 60.4 °F /  15.8 °C 30in /  1014.2hPa Calm   3.8mph /  6.1km/h 61% 0in /  0.0mm
23:10 72.7 °F /  22.6 °C 59.7 °F /  15.4 °C 30in /  1014.3hPa West 10.5mph /  16.9km/h 14.5mph /  23.4km/h 64% 0in /  0.0mm
Observations météo à CASSIS
WU-History script by Weather Underground - 2 mb